createdAt,value
2023-11-14T00:01:14.496Z,100225.66
2023-11-14T00:03:44.500Z,100242.56
2023-11-14T00:06:14.907Z,100236.38
2023-11-14T00:08:45.312Z,100235.94
2023-11-14T00:11:15.802Z,100236.81
2023-11-14T00:13:46.059Z,100252.28
2023-11-14T00:16:22.828Z,100259.59
2023-11-14T00:18:53.811Z,100259.44
2023-11-14T00:21:24.211Z,100256.63
2023-11-14T00:23:54.472Z,100259.31
2023-11-14T00:26:24.873Z,100261.81
2023-11-14T00:29:00.968Z,100262.34
2023-11-14T00:31:32.011Z,100273.06
2023-11-14T00:34:02.284Z,100270.22
2023-11-14T00:36:32.970Z,100278.09
2023-11-14T00:39:03.115Z,100277.16
2023-11-14T00:41:33.359Z,100280.63
2023-11-14T00:44:03.579Z,100278.75
2023-11-14T00:46:35.221Z,100275.72
2023-11-14T00:49:06.012Z,100280.69
2023-11-14T00:51:37.081Z,100292.72
2023-11-14T00:54:08.236Z,100291.13
2023-11-14T00:56:38.645Z,100295.59
2023-11-14T00:59:11.277Z,100295.06
2023-11-14T01:01:41.682Z,100298.13
2023-11-14T01:04:17.565Z,100311.38
2023-11-14T01:06:48.060Z,100313.84
2023-11-14T01:09:18.052Z,100312.81
2023-11-14T01:11:49.064Z,100327.09
2023-11-14T01:14:19.271Z,100326.69
2023-11-14T01:16:49.882Z,100334.91
2023-11-14T01:19:19.962Z,100330.09
2023-11-14T01:21:52.840Z,100329.38
2023-11-14T01:24:23.224Z,100336.16
2023-11-14T01:26:53.393Z,100324.28
2023-11-14T01:29:23.707Z,100327.22
2023-11-14T01:31:55.767Z,100320.84
2023-11-14T01:34:41.797Z,100313.75
2023-11-14T01:37:12.160Z,100312.34
2023-11-14T01:39:47.455Z,100323.56
2023-11-14T01:42:17.778Z,100330.72
2023-11-14T01:44:47.678Z,100322.00
2023-11-14T01:47:19.906Z,100327.72
2023-11-14T01:49:50.316Z,100323.28
2023-11-14T01:52:21.238Z,100312.53
2023-11-14T01:54:51.523Z,100311.03
2023-11-14T01:57:22.105Z,100316.38
2023-11-14T01:59:56.650Z,100311.97
2023-11-14T02:02:27.161Z,100313.22
2023-11-14T02:04:59.267Z,100295.72
2023-11-14T02:07:29.125Z,100300.56
2023-11-14T02:09:59.269Z,100310.69
2023-11-14T02:12:29.277Z,100309.69
2023-11-14T02:15:00.447Z,100307.53
2023-11-14T02:17:30.505Z,100302.88
2023-11-14T02:20:01.851Z,100305.03
2023-11-14T02:22:32.018Z,100301.47
2023-11-14T02:25:07.010Z,100296.69
2023-11-14T02:27:38.844Z,100287.31
2023-11-14T02:30:10.051Z,100274.22
2023-11-14T02:32:40.342Z,100255.31
2023-11-14T02:35:13.011Z,100255.19
2023-11-14T02:37:42.881Z,100252.03
2023-11-14T02:40:14.172Z,100244.44
2023-11-14T02:42:47.845Z,100236.06
2023-11-14T02:45:18.431Z,100225.13
2023-11-14T02:47:51.444Z,100218.78
2023-11-14T02:50:36.750Z,100207.03
2023-11-14T02:53:10.830Z,100198.38
2023-11-14T02:55:45.948Z,100201.22
2023-11-14T02:58:16.822Z,100193.84
2023-11-14T03:00:50.712Z,100191.88
2023-11-14T03:03:21.992Z,100194.72
2023-11-14T03:05:52.792Z,100191.81
2023-11-14T03:08:23.775Z,100196.06
2023-11-14T03:10:54.428Z,100183.03
2023-11-14T03:13:24.449Z,100184.91
2023-11-14T03:15:55.186Z,100180.34
2023-11-14T03:18:25.043Z,100176.25
2023-11-14T03:20:54.924Z,100170.13
2023-11-14T03:23:25.139Z,100160.84
2023-11-14T03:25:55.146Z,100166.59
2023-11-14T03:28:25.723Z,100166.59
2023-11-14T03:30:55.890Z,100162.81
2023-11-14T03:33:27.514Z,100162.81
2023-11-14T03:35:57.633Z,100155.84
2023-11-14T03:38:30.029Z,100151.91
2023-11-14T03:41:01.009Z,100142.72
2023-11-14T03:43:31.376Z,100137.00
2023-11-14T03:46:04.926Z,100129.75
2023-11-14T03:48:35.364Z,100126.00
2023-11-14T03:51:13.860Z,100108.53
2023-11-14T03:53:46.570Z,100108.00
2023-11-14T03:56:17.485Z,100092.19
2023-11-14T03:58:49.131Z,100112.31
2023-11-14T04:01:19.907Z,100130.16
2023-11-14T04:03:50.479Z,100136.84
2023-11-14T04:06:20.755Z,100145.84
2023-11-14T04:08:54.128Z,100152.78
2023-11-14T04:11:24.162Z,100151.63
2023-11-14T04:13:54.004Z,100149.97
2023-11-14T04:16:24.553Z,100142.03
2023-11-14T04:18:54.538Z,100134.78
2023-11-14T04:21:24.938Z,100136.69
2023-11-14T04:23:57.276Z,100135.94
2023-11-14T04:26:29.236Z,100131.41
2023-11-14T04:29:00.484Z,100108.38
2023-11-14T04:31:31.493Z,100088.91
2023-11-14T04:34:01.383Z,100085.38
2023-11-14T04:36:37.037Z,100087.47
2023-11-14T04:39:07.048Z,100075.84
2023-11-14T04:41:38.484Z,100082.91
2023-11-14T04:44:08.575Z,100057.13
2023-11-14T04:46:39.058Z,100047.22
2023-11-14T04:49:09.513Z,100041.41
2023-11-14T04:51:41.074Z,100043.84
2023-11-14T04:54:11.139Z,100050.63
2023-11-14T04:56:41.491Z,100057.13
2023-11-14T04:59:11.470Z,100055.91
2023-11-14T05:01:42.401Z,100043.28
2023-11-14T05:04:13.586Z,100031.19
2023-11-14T05:06:44.099Z,100023.81
2023-11-14T05:09:15.737Z,100000.16
2023-11-14T05:11:46.060Z,99994.69
2023-11-14T05:14:16.022Z,100019.63
2023-11-14T05:16:46.604Z,100022.25
2023-11-14T05:19:16.649Z,100037.19
2023-11-14T05:21:47.307Z,100045.13
2023-11-14T05:24:17.356Z,100037.81
2023-11-14T05:26:47.272Z,100018.50
2023-11-14T05:29:18.494Z,100012.16
2023-11-14T05:31:48.532Z,100021.84
2023-11-14T05:34:18.768Z,100014.22
2023-11-14T05:36:48.751Z,100011.94
2023-11-14T05:39:19.092Z,100028.44
2023-11-14T05:41:49.594Z,100037.63
2023-11-14T05:44:20.098Z,100044.38
2023-11-14T05:46:50.137Z,100065.91
2023-11-14T05:49:20.379Z,100068.81
2023-11-14T05:51:50.561Z,100074.34
2023-11-14T05:54:20.852Z,100075.84
2023-11-14T05:56:50.854Z,100082.03
2023-11-14T05:59:21.148Z,100108.78
2023-11-14T06:01:51.546Z,100130.56
2023-11-14T06:04:27.038Z,100126.63
2023-11-14T06:06:58.631Z,100135.91
2023-11-14T06:09:28.889Z,100134.25
2023-11-14T06:11:59.115Z,100121.72
2023-11-14T06:14:29.389Z,100098.88
2023-11-14T06:17:01.102Z,100118.84
2023-11-14T06:19:32.074Z,100122.44
2023-11-14T06:22:02.223Z,100122.72
2023-11-14T06:24:32.562Z,100104.19
2023-11-14T06:27:05.177Z,100120.97
2023-11-14T06:29:35.372Z,100125.31
2023-11-14T06:32:05.328Z,100123.56
2023-11-14T06:34:35.595Z,100108.59
2023-11-14T06:37:05.485Z,100094.78
2023-11-14T06:39:35.769Z,100085.91
2023-11-14T06:42:06.072Z,100101.63
2023-11-14T06:44:38.096Z,100106.88
2023-11-14T06:47:08.343Z,100096.28
2023-11-14T06:49:38.751Z,100099.28
2023-11-14T06:52:19.596Z,100098.78
2023-11-14T06:54:50.283Z,100060.22
2023-11-14T06:57:22.620Z,100036.06
2023-11-14T06:59:52.874Z,100009.53
2023-11-14T07:02:24.126Z,100019.19
2023-11-14T07:04:54.558Z,99990.91
2023-11-14T07:07:24.547Z,99976.00
2023-11-14T07:09:54.890Z,99988.63
2023-11-14T07:12:24.907Z,99989.47
2023-11-14T07:14:55.151Z,100013.59
2023-11-14T07:17:25.738Z,100026.50
2023-11-14T07:19:56.481Z,100001.34
2023-11-14T07:22:26.715Z,100014.94
2023-11-14T07:24:56.949Z,100026.34
2023-11-14T07:27:27.880Z,100015.97
2023-11-14T07:29:58.084Z,100041.56
2023-11-14T07:32:28.151Z,100038.28
2023-11-14T07:34:58.822Z,100016.13
2023-11-14T07:37:37.780Z,100025.22
2023-11-14T07:40:08.917Z,100047.41
2023-11-14T07:42:39.165Z,100079.06
2023-11-14T07:45:12.732Z,100072.22
2023-11-14T07:47:45.675Z,100075.91
2023-11-14T07:50:16.327Z,100092.72
2023-11-14T07:52:46.335Z,100091.78
2023-11-14T07:55:18.370Z,100092.50
2023-11-14T07:57:48.650Z,100077.47
2023-11-14T08:00:20.028Z,100082.84
2023-11-14T08:02:50.321Z,100086.75
2023-11-14T08:05:20.708Z,100098.16
2023-11-14T08:07:50.699Z,100101.31
2023-11-14T08:10:21.513Z,100091.31
2023-11-14T08:12:51.538Z,100081.56
2023-11-14T08:15:21.881Z,100090.88
2023-11-14T08:17:52.406Z,100101.53
2023-11-14T08:20:25.888Z,100095.97
2023-11-14T08:22:55.906Z,100113.16
2023-11-14T08:25:25.812Z,100103.25
2023-11-14T08:27:57.644Z,100115.00
2023-11-14T08:30:30.430Z,100113.47
2023-11-14T08:33:09.942Z,100115.03
2023-11-14T08:35:40.191Z,100127.69
2023-11-14T08:38:17.283Z,100097.69
2023-11-14T08:40:51.238Z,100112.84
2023-11-14T08:43:22.444Z,100157.78
2023-11-14T08:45:52.427Z,100167.19
2023-11-14T08:48:23.754Z,100163.16
2023-11-14T08:50:55.153Z,100178.88
2023-11-14T08:53:26.058Z,100179.78
2023-11-14T08:55:56.305Z,100188.75
2023-11-14T08:58:27.772Z,100168.13
2023-11-14T09:00:59.955Z,100141.00
2023-11-14T09:03:30.922Z,100148.84
2023-11-14T09:06:00.878Z,100133.94
2023-11-14T09:08:30.852Z,100123.16
2023-11-14T09:11:01.420Z,100133.28
2023-11-14T09:13:31.439Z,100125.66
2023-11-14T09:16:03.869Z,100125.03
2023-11-14T09:18:35.806Z,100154.34
2023-11-14T09:21:06.475Z,100176.53
2023-11-14T09:23:36.644Z,100173.78
2023-11-14T09:26:09.381Z,100173.25
2023-11-14T09:28:39.832Z,100139.56
2023-11-14T09:31:11.062Z,100168.34
2023-11-14T09:33:41.233Z,100174.25
2023-11-14T09:36:11.805Z,100180.56
2023-11-14T09:38:41.853Z,100198.63
2023-11-14T09:41:15.062Z,100213.25
2023-11-14T09:43:48.814Z,100236.06
2023-11-14T09:46:19.796Z,100244.31
2023-11-14T09:48:50.000Z,100243.84
2023-11-14T09:51:21.906Z,100238.44
2023-11-14T09:53:57.547Z,100244.13
2023-11-14T09:56:28.543Z,100231.53
2023-11-14T09:58:59.967Z,100218.63
2023-11-14T10:01:30.506Z,100183.03
2023-11-14T10:04:01.847Z,100182.84
2023-11-14T10:06:32.240Z,100178.53
2023-11-14T10:09:05.158Z,100197.94
2023-11-14T10:12:12.035Z,100197.06
2023-11-14T10:14:46.776Z,100192.69
2023-11-14T10:17:20.428Z,100204.94
2023-11-14T10:20:07.221Z,100210.28
2023-11-14T10:22:37.954Z,100224.00
2023-11-14T10:25:08.135Z,100245.84
2023-11-14T10:27:39.235Z,100224.91
2023-11-14T10:30:10.029Z,100206.94
2023-11-14T10:32:40.329Z,100212.81
2023-11-14T10:35:19.702Z,100227.50
2023-11-14T10:37:50.059Z,100234.75
2023-11-14T10:40:20.102Z,100212.03
2023-11-14T10:42:56.381Z,100174.44
2023-11-14T10:45:26.355Z,100171.13
2023-11-14T10:47:56.303Z,100175.53
2023-11-14T10:50:35.348Z,100192.72
2023-11-14T10:53:06.293Z,100220.09
2023-11-14T10:55:37.372Z,100230.25
2023-11-14T10:58:09.228Z,100232.53
2023-11-14T11:00:40.139Z,100235.25
2023-11-14T11:03:11.207Z,100249.66
2023-11-14T11:05:42.575Z,100257.28
2023-11-14T11:08:15.908Z,100242.72
2023-11-14T11:10:47.057Z,100239.69
2023-11-14T11:13:23.777Z,100246.22
2023-11-14T11:15:59.332Z,100249.91
2023-11-14T11:18:40.719Z,100244.75
2023-11-14T11:21:11.268Z,100238.84
2023-11-14T11:24:12.451Z,100230.75
2023-11-14T11:27:13.701Z,100207.78
2023-11-14T11:29:52.613Z,100208.22
2023-11-14T11:32:38.199Z,100214.31
2023-11-14T11:35:23.647Z,100214.88
2023-11-14T11:37:57.127Z,100206.50
2023-11-14T11:40:30.251Z,100186.88
2023-11-14T11:43:12.922Z,100172.34
2023-11-14T11:45:43.887Z,100161.75
2023-11-14T11:48:34.691Z,100167.97
2023-11-14T11:51:28.758Z,100169.38
2023-11-14T11:54:00.288Z,100169.69
2023-11-14T11:56:39.343Z,100181.94
2023-11-14T11:59:10.061Z,100193.13
2023-11-14T12:01:50.684Z,100191.00
2023-11-14T12:04:22.211Z,100192.13
2023-11-14T12:06:52.562Z,100179.16
2023-11-14T12:09:22.667Z,100160.66
2023-11-14T12:11:54.661Z,100156.81
2023-11-14T12:14:25.273Z,100159.66
2023-11-14T12:16:55.754Z,100169.53
2023-11-14T12:19:26.139Z,100183.81
2023-11-14T12:21:57.221Z,100177.97
2023-11-14T12:24:27.495Z,100176.59
2023-11-14T12:26:59.748Z,100186.63
2023-11-14T12:29:30.908Z,100196.66
2023-11-14T12:32:01.288Z,100203.72
2023-11-14T12:34:33.162Z,100204.00
2023-11-14T12:37:19.325Z,100199.75
2023-11-14T12:40:24.725Z,100191.44
2023-11-14T12:42:54.983Z,100212.34
2023-11-14T12:45:25.403Z,100211.47
2023-11-14T12:47:57.694Z,100231.53
2023-11-14T12:50:27.854Z,100221.34
2023-11-14T12:53:00.028Z,100230.91
2023-11-14T12:55:30.411Z,100228.84
2023-11-14T12:58:01.122Z,100231.50
2023-11-14T13:00:31.862Z,100229.66
2023-11-14T13:03:02.287Z,100237.47
2023-11-14T13:05:32.863Z,100244.50
2023-11-14T13:08:03.277Z,100249.31
2023-11-14T13:10:33.858Z,100246.75
2023-11-14T13:13:04.272Z,100236.59
2023-11-14T13:15:35.153Z,100235.91
2023-11-14T13:18:06.285Z,100225.63
2023-11-14T13:20:36.459Z,100237.03
2023-11-14T13:23:07.100Z,100236.78
2023-11-14T13:25:37.224Z,100221.22
2023-11-14T13:28:07.534Z,100222.75
2023-11-14T13:30:38.380Z,100213.56
2023-11-14T13:33:08.954Z,100221.00
2023-11-14T13:35:39.724Z,100222.94
2023-11-14T13:38:10.325Z,100209.28
2023-11-14T13:40:45.050Z,100216.56
2023-11-14T13:43:19.355Z,100205.63
2023-11-14T13:46:20.648Z,100189.88
2023-11-14T13:48:57.971Z,100174.25
2023-11-14T13:51:28.198Z,100169.97
2023-11-14T13:53:58.435Z,100166.53
2023-11-14T13:56:28.547Z,100161.50
2023-11-14T13:59:00.171Z,100159.72
2023-11-14T14:01:36.826Z,100157.31
2023-11-14T14:04:08.737Z,100151.38
2023-11-14T14:06:38.718Z,100134.78
2023-11-14T14:09:11.888Z,100143.66
2023-11-14T14:11:43.576Z,100129.88
2023-11-14T14:14:15.343Z,100126.34
2023-11-14T14:16:46.100Z,100126.03
2023-11-14T14:19:19.609Z,100130.56
2023-11-14T14:21:49.652Z,100129.41
2023-11-14T14:24:20.325Z,100133.72
2023-11-14T14:26:50.559Z,100144.38
2023-11-14T14:29:20.950Z,100150.22
2023-11-14T14:31:51.490Z,100157.38
2023-11-14T14:34:21.718Z,100168.41
2023-11-14T14:36:51.741Z,100168.63
2023-11-14T14:39:23.593Z,100172.16
2023-11-14T14:41:54.915Z,100169.78
2023-11-14T14:44:27.149Z,100176.44
2023-11-14T14:46:57.247Z,100184.66
2023-11-14T14:49:27.657Z,100182.78
2023-11-14T14:51:59.524Z,100189.09
2023-11-14T14:54:31.261Z,100182.34
2023-11-14T14:57:01.421Z,100177.78
2023-11-14T14:59:32.546Z,100171.22
2023-11-14T15:02:02.940Z,100184.56
2023-11-14T15:04:33.291Z,100176.09
2023-11-14T15:07:03.435Z,100173.34
2023-11-14T15:09:34.376Z,100184.03
2023-11-14T15:12:04.703Z,100175.50
2023-11-14T15:14:41.456Z,100171.53
2023-11-14T15:17:14.853Z,100181.34
2023-11-14T15:19:45.963Z,100185.75
2023-11-14T15:22:15.927Z,100174.94
2023-11-14T15:24:46.145Z,100180.00
2023-11-14T15:27:15.965Z,100183.50
2023-11-14T15:29:47.734Z,100189.31
2023-11-14T15:32:17.990Z,100196.44
2023-11-14T15:34:48.227Z,100202.94
2023-11-14T15:37:18.133Z,100202.13
2023-11-14T15:39:48.475Z,100200.06
2023-11-14T15:42:18.632Z,100202.91
2023-11-14T15:44:49.897Z,100199.94
2023-11-14T15:47:20.010Z,100191.91
2023-11-14T15:49:50.220Z,100195.06
2023-11-14T15:52:20.034Z,100198.66
2023-11-14T15:54:50.245Z,100185.78
2023-11-14T15:57:20.917Z,100190.66
2023-11-14T15:59:51.641Z,100176.63
2023-11-14T16:02:22.682Z,100180.25
2023-11-14T16:04:53.505Z,100179.13
2023-11-14T16:07:23.491Z,100180.34
2023-11-14T16:09:53.985Z,100178.72
2023-11-14T16:12:24.694Z,100171.63
2023-11-14T16:14:55.043Z,100155.47
2023-11-14T16:17:25.481Z,100153.16
2023-11-14T16:19:55.886Z,100151.66
2023-11-14T16:22:25.977Z,100148.25
2023-11-14T16:24:56.260Z,100135.53
2023-11-14T16:27:26.058Z,100132.78
2023-11-14T16:29:56.297Z,100133.84
2023-11-14T16:32:26.195Z,100145.75
2023-11-14T16:34:56.439Z,100152.47
2023-11-14T16:37:27.182Z,100135.38
2023-11-14T16:39:58.015Z,100142.75
2023-11-14T16:42:28.505Z,100147.94
2023-11-14T16:44:58.703Z,100147.09
2023-11-14T16:47:28.858Z,100139.75
2023-11-14T16:49:59.210Z,100146.63
2023-11-14T16:52:32.463Z,100139.22
2023-11-14T16:55:05.997Z,100131.13
2023-11-14T16:57:38.297Z,100123.34
2023-11-14T17:00:10.074Z,100118.56
2023-11-14T17:02:40.311Z,100113.44
2023-11-14T17:05:11.895Z,100104.34
2023-11-14T17:07:42.079Z,100099.94
2023-11-14T17:10:12.652Z,100098.34
2023-11-14T17:12:46.456Z,100093.41
2023-11-14T17:15:18.948Z,100092.81
2023-11-14T17:17:49.392Z,100078.75
2023-11-14T17:20:19.847Z,100059.53
2023-11-14T17:22:49.832Z,100069.66
2023-11-14T17:25:20.114Z,100048.34
2023-11-14T17:27:50.603Z,100058.22
2023-11-14T17:30:21.080Z,100054.41
2023-11-14T17:32:51.102Z,100052.84
2023-11-14T17:35:23.793Z,100051.78
2023-11-14T17:37:54.028Z,100060.78
2023-11-14T17:40:24.312Z,100071.59
2023-11-14T17:42:54.455Z,100077.03
2023-11-14T17:45:24.795Z,100072.84
2023-11-14T17:47:54.865Z,100087.09
2023-11-14T17:50:25.349Z,100096.25
2023-11-14T17:52:55.354Z,100096.72
2023-11-14T17:55:25.572Z,100101.56
2023-11-14T17:57:55.702Z,100114.94
2023-11-14T18:00:26.040Z,100104.28
2023-11-14T18:02:59.073Z,100106.38
2023-11-14T18:05:30.260Z,100112.66
2023-11-14T18:08:06.846Z,100120.91
2023-11-14T18:10:37.812Z,100125.44
2023-11-14T18:13:08.219Z,100106.91
2023-11-14T18:15:38.808Z,100099.56
2023-11-14T18:18:09.025Z,100099.47
2023-11-14T18:20:40.453Z,100117.59
2023-11-14T18:23:11.055Z,100115.97
2023-11-14T18:25:41.268Z,100112.50
2023-11-14T18:28:11.499Z,100114.81
2023-11-14T18:30:42.293Z,100110.41
2023-11-14T18:33:12.483Z,100114.47
2023-11-14T18:35:45.790Z,100097.16
2023-11-14T18:38:15.923Z,100095.66
2023-11-14T18:40:46.154Z,100091.59
2023-11-14T18:43:16.696Z,100104.44
2023-11-14T18:45:47.038Z,100093.47
2023-11-14T18:48:17.730Z,100097.75
2023-11-14T18:50:49.579Z,100102.75
2023-11-14T18:53:21.298Z,100106.41
2023-11-14T18:55:52.704Z,100117.38
2023-11-14T18:58:23.456Z,100110.16
2023-11-14T19:01:01.536Z,100118.06
2023-11-14T19:03:37.759Z,100092.28
2023-11-14T19:06:10.465Z,100092.47
2023-11-14T19:08:40.010Z,100097.81
2023-11-14T19:11:10.479Z,100083.34
2023-11-14T19:13:40.673Z,100086.75
2023-11-14T19:16:12.343Z,100086.44
2023-11-14T19:18:42.489Z,100083.41
2023-11-14T19:23:48.829Z,100095.50
2023-11-14T19:26:22.413Z,100090.03
2023-11-14T19:28:53.241Z,100086.72
2023-11-14T19:31:24.327Z,100083.84
2023-11-14T19:33:54.821Z,100088.66
2023-11-14T19:36:25.272Z,100094.31
2023-11-14T19:38:55.287Z,100094.88
2023-11-14T19:41:25.597Z,100095.00
2023-11-14T19:43:55.606Z,100084.69
2023-11-14T19:46:25.944Z,100097.09
2023-11-14T19:48:57.074Z,100113.72
2023-11-14T19:51:27.636Z,100114.19
2023-11-14T19:53:57.895Z,100114.28
2023-11-14T19:56:28.566Z,100111.47
2023-11-14T19:59:05.878Z,100107.97
2023-11-14T20:01:36.703Z,100107.63
2023-11-14T20:04:07.298Z,100103.88
2023-11-14T20:06:39.926Z,100103.66
2023-11-14T20:09:09.914Z,100097.47
2023-11-14T20:11:43.281Z,100095.94
2023-11-14T20:14:13.877Z,100090.28
2023-11-14T20:16:43.715Z,100096.16
2023-11-14T20:19:14.282Z,100096.16
2023-11-14T20:21:44.095Z,100086.41
2023-11-14T20:24:14.501Z,100080.09
2023-11-14T20:26:45.044Z,100083.03
2023-11-14T20:29:15.745Z,100081.97
2023-11-14T20:31:46.007Z,100085.34
2023-11-14T20:34:15.975Z,100068.53
2023-11-14T20:36:46.172Z,100075.19
2023-11-14T20:39:20.061Z,100090.19
2023-11-14T20:41:51.157Z,100085.97
2023-11-14T20:44:22.245Z,100071.78
2023-11-14T20:46:54.897Z,100075.31
2023-11-14T20:49:25.495Z,100075.44
2023-11-14T20:51:56.353Z,100069.25
2023-11-14T20:54:26.548Z,100075.59
2023-11-14T20:56:57.067Z,100076.16
2023-11-14T20:59:27.418Z,100075.97
2023-11-14T21:01:59.414Z,100085.38
2023-11-14T21:04:29.480Z,100086.25
2023-11-14T21:06:59.889Z,100082.50
2023-11-14T21:09:29.855Z,100086.63
2023-11-14T21:12:00.401Z,100089.72
2023-11-14T21:14:30.630Z,100081.41
2023-11-14T21:17:01.214Z,100078.44
2023-11-14T21:19:31.195Z,100098.06
2023-11-14T21:22:00.911Z,100105.59
2023-11-14T21:24:33.277Z,100109.41
2023-11-14T21:27:03.203Z,100112.84
2023-11-14T21:29:33.679Z,100117.72
2023-11-14T21:32:04.100Z,100105.34
2023-11-14T21:34:34.188Z,100111.22
2023-11-14T21:37:04.600Z,100115.06
2023-11-14T21:39:34.770Z,100117.38
2023-11-14T21:42:05.281Z,100129.53
2023-11-14T21:44:35.471Z,100127.19
2023-11-14T21:47:05.923Z,100129.59
2023-11-14T21:49:42.491Z,100134.53
2023-11-14T21:52:13.329Z,100125.63
2023-11-14T21:54:43.304Z,100119.47
2023-11-14T21:57:13.025Z,100129.34
2023-11-14T21:59:43.454Z,100130.88
2023-11-14T22:02:14.275Z,100142.69
2023-11-14T22:04:45.958Z,100146.06
2023-11-14T22:07:15.944Z,100149.44
2023-11-14T22:09:46.497Z,100158.59
2023-11-14T22:12:16.515Z,100160.28
2023-11-14T22:14:47.295Z,100179.88
2023-11-14T22:17:17.177Z,100176.06
2023-11-14T22:19:47.976Z,100178.16
2023-11-14T22:22:18.487Z,100176.53
2023-11-14T22:24:48.996Z,100173.66
2023-11-14T22:27:19.408Z,100171.25
2023-11-14T22:29:49.642Z,100177.84
2023-11-14T22:32:20.152Z,100178.72
2023-11-14T22:34:50.188Z,100177.53
2023-11-14T22:37:20.503Z,100169.22
2023-11-14T22:39:50.636Z,100174.47
2023-11-14T22:42:21.261Z,100179.94
2023-11-14T22:44:51.510Z,100183.75
2023-11-14T22:47:21.948Z,100185.91
2023-11-14T22:49:53.058Z,100186.06
2023-11-14T22:52:23.397Z,100173.78
2023-11-14T22:54:53.480Z,100169.16
2023-11-14T22:57:23.816Z,100173.63
2023-11-14T22:59:54.059Z,100165.69
2023-11-14T23:02:24.529Z,100157.91
2023-11-14T23:04:56.020Z,100156.25
2023-11-14T23:07:26.387Z,100146.50
2023-11-14T23:09:56.856Z,100136.75
2023-11-14T23:12:28.622Z,100148.22
2023-11-14T23:14:59.006Z,100150.56
2023-11-14T23:17:29.481Z,100155.75
2023-11-14T23:19:59.619Z,100173.88
2023-11-14T23:22:29.298Z,100169.59
2023-11-14T23:25:00.085Z,100175.56
2023-11-14T23:27:30.054Z,100174.78
2023-11-14T23:30:00.431Z,100198.06
2023-11-14T23:32:30.482Z,100206.72
2023-11-14T23:35:00.875Z,100211.84
2023-11-14T23:37:32.705Z,100204.59
2023-11-14T23:40:05.802Z,100202.97
2023-11-14T23:42:35.842Z,100219.72
2023-11-14T23:45:08.851Z,100217.53
2023-11-14T23:47:40.022Z,100220.06
2023-11-14T23:50:11.056Z,100233.88
2023-11-14T23:52:44.355Z,100244.03
2023-11-14T23:55:14.824Z,100248.50
2023-11-14T23:57:44.910Z,100237.09
